Boscombe Down, United Kingdom
Current Conditions -  °F | °C
As of 1:50 AM on Wednesday 22 Oct 2014 (Local Time) from EGDM Reporting Station
Clear Clear  
Wind Chill: 37°   Ceiling: Unl
Heat Index: 43°   Visibility: 6mi
Dew Point: 39°   Wind: 12mph
Humidity: 87%   Direction: 280°W
Pressure: 30.24"   Gusts: NA
Location:  51.17°N, 1.75°W
Report Text: EGDM 220050Z AUTO 28010KT 9999 NCD 06/04 Q1024
Loading
Personal Weather Stations






























Interactive Weather Map
Tropical Storm Tracking
New forecast layout! Learn more

10-Day Weather Forecast

Advertisements
Track Severe Weather on mobile